Time;durP1;ratioP1;P1;durP2;ratioP2;P2;SDS_P1;SDS_P2;PMS_P1;PMS_P2;Temp;Humidity;BMP_temperature;BMP_pressure;BME280_temperature;BME280_humidity;BME280_pressure;Samples;Min_cycle;Max_cycle;Signal;HPM_P1;HPM_P2
2023/07/09 00:00:13;;;;;;;9.43;7.90;;;26.80;65.30;;;;;;5034480;28;20075;-54
2023/07/09 00:02:59;;;;;;;8.60;7.68;;;26.70;65.60;;;;;;5041273;28;20059;-55
2023/07/09 00:05:48;;;;;;;9.18;7.70;;;26.60;66.00;;;;;;5035011;28;20505;-52
2023/07/09 00:08:34;;;;;;;9.07;8.18;;;26.60;66.40;;;;;;5035069;28;20025;-56
2023/07/09 00:11:20;;;;;;;8.68;7.78;;;26.50;67.10;;;;;;5033963;28;20083;-54
2023/07/09 00:14:07;;;;;;;9.80;8.38;;;26.50;68.20;;;;;;5033641;28;20467;-55
2023/07/09 00:16:53;;;;;;;12.45;8.93;;;26.30;69.50;;;;;;5033389;28;20037;-53
2023/07/09 00:19:39;;;;;;;12.85;9.18;;;26.00;69.20;;;;;;5036890;28;20033;-52
2023/07/09 00:22:26;;;;;;;15.10;9.23;;;25.60;68.40;;;;;;5035776;28;20029;-56
2023/07/09 00:25:16;;;;;;;9.65;8.73;;;25.30;67.10;;;;;;5034502;28;20017;-56
2023/07/09 00:28:02;;;;;;;9.70;8.68;;;25.20;68.20;;;;;;5033026;28;20505;-57
2023/07/09 00:30:48;;;;;;;11.40;9.15;;;25.30;68.40;;;;;;5031834;28;20069;-54
2023/07/09 00:33:34;;;;;;;10.73;9.15;;;25.50;68.20;;;;;;5033539;28;20033;-53
2023/07/09 00:36:27;;;;;;;9.00;8.20;;;25.50;68.00;;;;;;5032785;28;20116;-54
2023/07/09 00:39:17;;;;;;;12.25;8.60;;;25.70;67.50;;;;;;5033897;28;20034;-52
2023/07/09 00:42:04;;;;;;;10.38;8.32;;;25.70;67.10;;;;;;5033990;28;20026;-52
2023/07/09 00:44:54;;;;;;;11.73;8.73;;;25.80;67.00;;;;;;5033270;28;20108;-56
2023/07/09 00:47:51;;;;;;;10.85;8.27;;;25.70;67.90;;;;;;5032903;28;20030;-56
2023/07/09 00:50:49;;;;;;;9.00;8.18;;;25.70;68.40;;;;;;5032723;28;20025;-56
2023/07/09 00:53:35;;;;;;;14.02;9.05;;;25.70;68.60;;;;;;5032768;28;20482;-56
2023/07/09 00:56:45;;;;;;;10.15;8.57;;;25.70;68.90;;;;;;5032674;28;20075;-56
2023/07/09 00:59:31;;;;;;;9.63;8.73;;;25.60;69.90;;;;;;5032714;28;20029;-54
2023/07/09 01:02:23;;;;;;;10.88;9.02;;;25.40;71.30;;;;;;5033073;28;20120;-56
2023/07/09 01:05:10;;;;;;;11.65;8.70;;;25.30;71.80;;;;;;5033226;28;20044;-55
2023/07/09 01:07:58;;;;;;;10.23;8.10;;;25.20;71.80;;;;;;5033075;28;20025;-54
2023/07/09 01:10:47;;;;;;;9.13;8.20;;;25.20;71.60;;;;;;5031638;28;20029;-53
2023/07/09 01:13:34;;;;;;;8.88;8.00;;;25.10;71.30;;;;;;5032808;28;20084;-56
2023/07/09 01:16:23;;;;;;;11.07;9.27;;;25.00;71.90;;;;;;5032609;28;20119;-53
2023/07/09 01:19:09;;;;;;;11.18;8.50;;;25.00;71.90;;;;;;5032346;28;20029;-55
2023/07/09 01:21:58;;;;;;;9.63;8.73;;;25.00;71.40;;;;;;5032438;28;20413;-53
2023/07/09 01:24:50;;;;;;;10.43;8.95;;;24.90;71.10;;;;;;5035275;28;20030;-50
2023/07/09 01:27:42;;;;;;;10.15;9.25;;;24.80;71.80;;;;;;5039192;28;20034;-51
2023/07/09 01:30:38;;;;;;;10.30;9.18;;;24.60;71.00;;;;;;5038085;28;20476;-55
2023/07/09 01:33:26;;;;;;;11.40;9.68;;;24.20;71.90;;;;;;5033249;28;20031;-54
2023/07/09 01:36:15;;;;;;;10.82;9.82;;;23.90;70.70;;;;;;5035126;28;20033;-54
2023/07/09 01:39:01;;;;;;;10.02;9.02;;;23.80;70.90;;;;;;5036396;28;20033;-55
2023/07/09 01:41:48;;;;;;;9.68;8.68;;;23.90;72.00;;;;;;5038263;28;20055;-55
2023/07/09 01:44:36;;;;;;;12.65;9.45;;;23.90;72.60;;;;;;5038979;28;20025;-56
2023/07/09 01:47:23;;;;;;;10.45;9.00;;;23.90;72.50;;;;;;5036838;28;20076;-55
2023/07/09 01:50:10;;;;;;;11.10;9.48;;;23.80;73.80;;;;;;5036497;28;20041;-51
2023/07/09 01:52:57;;;;;;;11.98;9.48;;;23.60;74.20;;;;;;5036315;28;20032;-51
2023/07/09 01:55:44;;;;;;;10.15;9.18;;;23.60;74.30;;;;;;5036042;28;20048;-55
2023/07/09 01:58:31;;;;;;;9.75;8.75;;;23.50;73.90;;;;;;5036440;28;20532;-52
2023/07/09 02:01:19;;;;;;;10.30;9.27;;;23.50;74.00;;;;;;5035946;28;20057;-52
2023/07/09 02:04:05;;;;;;;10.40;9.23;;;23.40;74.40;;;;;;5036054;28;20017;-51
2023/07/09 02:06:51;;;;;;;10.48;9.35;;;23.30;74.40;;;;;;5034521;28;20505;-52
2023/07/09 02:09:37;;;;;;;10.63;9.45;;;23.20;74.40;;;;;;5039130;28;20414;-55
2023/07/09 02:12:23;;;;;;;9.32;8.45;;;23.20;74.40;;;;;;5037198;28;20037;-54
2023/07/09 02:15:09;;;;;;;9.57;8.73;;;23.30;74.60;;;;;;5039564;28;20052;-55
2023/07/09 02:17:55;;;;;;;11.30;10.07;;;23.50;74.50;;;;;;5047179;28;20097;-55
2023/07/09 02:20:41;;;;;;;12.35;9.02;;;23.40;75.40;;;;;;5042601;28;20030;-51
2023/07/09 02:23:28;;;;;;;11.38;9.55;;;23.20;75.60;;;;;;5035857;28;20105;-50
2023/07/09 02:26:14;;;;;;;10.90;9.48;;;23.10;75.40;;;;;;5035486;28;20056;-55
2023/07/09 02:29:00;;;;;;;10.20;9.20;;;23.10;75.20;;;;;;5034451;28;20040;-51
2023/07/09 02:31:48;;;;;;;9.90;8.90;;;23.20;75.40;;;;;;5035339;28;20033;-51
2023/07/09 02:34:35;;;;;;;9.98;8.60;;;23.30;74.20;;;;;;5035948;28;20613;-55
2023/07/09 02:37:23;;;;;;;10.50;9.50;;;23.50;73.90;;;;;;5035227;28;20092;-51
2023/07/09 02:40:11;;;;;;;10.35;9.35;;;23.60;74.10;;;;;;5035475;28;20424;-52
2023/07/09 02:42:57;;;;;;;10.57;9.68;;;23.60;74.50;;;;;;5036405;28;20044;-52
2023/07/09 02:45:43;;;;;;;9.45;8.65;;;23.60;74.90;;;;;;5034868;28;20033;-53
2023/07/09 02:48:29;;;;;;;9.65;8.80;;;23.70;74.90;;;;;;5034829;28;20029;-51
2023/07/09 02:51:15;;;;;;;9.52;8.63;;;23.70;75.10;;;;;;5033941;28;20087;-51
2023/07/09 02:54:02;;;;;;;10.80;9.50;;;23.60;75.40;;;;;;5033020;28;20029;-51
2023/07/09 02:56:48;;;;;;;10.60;9.50;;;23.50;75.70;;;;;;5035361;28;20022;-55
2023/07/09 02:59:34;;;;;;;9.90;9.00;;;23.20;76.20;;;;;;5035270;28;20040;-55
2023/07/09 03:02:20;;;;;;;10.10;9.10;;;23.10;76.40;;;;;;5034661;28;20417;-54
2023/07/09 03:05:06;;;;;;;10.43;9.43;;;23.10;76.60;;;;;;5034641;28;20025;-52
2023/07/09 03:07:52;;;;;;;9.82;8.93;;;23.00;76.50;;;;;;5034642;28;20041;-54
2023/07/09 03:10:39;;;;;;;11.00;8.85;;;23.20;76.00;;;;;;5034762;28;20042;-52
2023/07/09 03:13:24;;;;;;;9.75;8.85;;;23.30;75.30;;;;;;5034714;28;20095;-55
2023/07/09 03:16:11;;;;;;;12.93;9.80;;;23.30;75.70;;;;;;5034612;28;20445;-54
2023/07/09 03:18:58;;;;;;;11.10;9.90;;;23.40;75.80;;;;;;5034541;28;20028;-55
2023/07/09 03:21:44;;;;;;;11.40;9.93;;;23.30;75.70;;;;;;5034382;28;20033;-56
2023/07/09 03:24:30;;;;;;;9.82;8.82;;;23.20;75.80;;;;;;5034385;28;20056;-56
2023/07/09 03:27:16;;;;;;;11.45;9.52;;;23.20;75.30;;;;;;5034214;28;20041;-54
2023/07/09 03:30:02;;;;;;;11.13;10.02;;;23.10;74.40;;;;;;5035097;28;20176;-56
2023/07/09 03:32:48;;;;;;;10.75;9.65;;;23.00;74.50;;;;;;5034414;28;20053;-56
2023/07/09 03:35:34;;;;;;;10.82;9.75;;;23.00;74.10;;;;;;5034242;28;20022;-55
2023/07/09 03:38:20;;;;;;;10.48;9.43;;;23.10;74.20;;;;;;5034126;28;20026;-56
2023/07/09 03:41:06;;;;;;;10.30;9.40;;;23.10;73.50;;;;;;5034423;28;20029;-53
2023/07/09 03:43:53;;;;;;;11.70;10.68;;;23.20;73.40;;;;;;5034136;28;20394;-52
2023/07/09 03:46:39;;;;;;;12.27;10.43;;;23.10;71.80;;;;;;5033458;28;20030;-52
2023/07/09 03:49:25;;;;;;;10.93;9.93;;;23.10;71.50;;;;;;5034010;28;20029;-52
2023/07/09 03:52:11;;;;;;;11.05;9.52;;;23.00;71.40;;;;;;5039322;28;20081;-53
2023/07/09 03:54:56;;;;;;;10.77;9.70;;;23.10;71.40;;;;;;5041940;28;20028;-55
2023/07/09 03:57:42;;;;;;;10.80;9.45;;;23.20;71.40;;;;;;5036111;28;20061;-54
2023/07/09 04:00:29;;;;;;;10.77;9.80;;;23.20;71.20;;;;;;5034807;28;20030;-50
2023/07/09 04:03:15;;;;;;;11.15;9.68;;;23.40;71.40;;;;;;5032512;28;20064;-50
2023/07/09 04:06:01;;;;;;;9.73;8.73;;;23.40;71.80;;;;;;5034173;28;20105;-54
2023/07/09 04:08:47;;;;;;;10.40;9.40;;;23.50;72.30;;;;;;5036222;28;20048;-57
2023/07/09 04:11:33;;;;;;;10.43;9.52;;;23.60;72.10;;;;;;5034938;28;20029;-57
2023/07/09 04:14:19;;;;;;;10.45;9.55;;;23.60;72.20;;;;;;5041885;28;20033;-56
2023/07/09 04:17:05;;;;;;;11.35;10.18;;;23.70;72.70;;;;;;5041019;28;20025;-57
2023/07/09 04:19:51;;;;;;;11.27;9.75;;;23.80;72.80;;;;;;5041521;28;20120;-52
2023/07/09 04:22:37;;;;;;;10.55;9.40;;;23.80;73.10;;;;;;5041649;28;20022;-52
2023/07/09 04:25:23;;;;;;;10.88;9.77;;;23.80;73.20;;;;;;5039206;28;20036;-52
2023/07/09 04:28:09;;;;;;;10.75;9.77;;;23.70;73.40;;;;;;5033227;28;20037;-52
2023/07/09 04:30:55;;;;;;;10.98;9.80;;;23.70;73.90;;;;;;5034031;28;20387;-55
2023/07/09 04:33:43;;;;;;;10.73;9.63;;;23.50;75.40;;;;;;5036122;28;20418;-52
2023/07/09 04:36:29;;;;;;;10.48;9.40;;;23.50;75.40;;;;;;5032593;28;20533;-51
2023/07/09 04:39:15;;;;;;;12.30;9.57;;;23.60;75.00;;;;;;5033371;28;20064;-51
2023/07/09 04:42:01;;;;;;;11.00;9.38;;;23.60;74.50;;;;;;5033991;28;20029;-51
2023/07/09 04:44:47;;;;;;;11.45;9.07;;;23.70;73.90;;;;;;5033680;28;20029;-55
2023/07/09 04:47:33;;;;;;;10.32;9.13;;;23.70;73.10;;;;;;5032590;28;20079;-53
2023/07/09 04:50:19;;;;;;;10.45;9.35;;;23.80;72.70;;;;;;5032865;28;20086;-53
2023/07/09 04:53:05;;;;;;;10.32;9.43;;;23.90;72.70;;;;;;5032779;28;20087;-55
2023/07/09 04:55:51;;;;;;;10.30;9.40;;;23.90;72.40;;;;;;5032280;28;20036;-53
2023/07/09 04:58:37;;;;;;;9.80;8.88;;;23.90;72.10;;;;;;5032592;28;20036;-55
2023/07/09 05:01:23;;;;;;;10.48;9.57;;;24.00;71.80;;;;;;5032915;28;20034;-55
2023/07/09 05:04:09;;;;;;;10.25;8.70;;;24.00;71.50;;;;;;5033031;28;20327;-53
2023/07/09 05:06:56;;;;;;;10.40;9.40;;;24.00;71.30;;;;;;5031312;28;20021;-55
2023/07/09 05:09:42;;;;;;;9.98;8.70;;;24.10;71.00;;;;;;5032919;28;20030;-52
2023/07/09 05:12:28;;;;;;;10.07;9.18;;;24.10;71.00;;;;;;5033005;28;20036;-53
2023/07/09 05:15:14;;;;;;;9.82;8.38;;;24.10;71.00;;;;;;5032620;28;20032;-51
2023/07/09 05:18:00;;;;;;;10.65;8.57;;;24.20;71.20;;;;;;5036093;28;20026;-54
2023/07/09 05:20:47;;;;;;;10.15;9.15;;;24.20;71.00;;;;;;5041218;28;20065;-54
2023/07/09 05:23:33;;;;;;;10.23;9.23;;;24.20;70.80;;;;;;5037790;28;20017;-52
2023/07/09 05:26:19;;;;;;;10.13;9.13;;;24.20;70.70;;;;;;5040116;28;20018;-55
2023/07/09 05:29:05;;;;;;;10.50;9.50;;;24.30;70.70;;;;;;5042755;28;20401;-54
2023/07/09 05:31:51;;;;;;;10.50;9.52;;;24.30;70.70;;;;;;5038748;28;20048;-53
2023/07/09 05:34:37;;;;;;;10.55;9.55;;;24.30;70.80;;;;;;5036751;28;20570;-54
2023/07/09 05:37:23;;;;;;;10.45;9.45;;;24.40;70.90;;;;;;5036150;28;20030;-54
2023/07/09 05:40:10;;;;;;;11.13;9.75;;;24.40;71.00;;;;;;5036746;28;20448;-55
2023/07/09 05:42:56;;;;;;;20.25;9.25;;;24.50;71.00;;;;;;5036558;28;20036;-54
2023/07/09 05:45:42;;;;;;;9.63;8.63;;;24.50;71.10;;;;;;5036667;28;20025;-52
2023/07/09 05:48:28;;;;;;;10.80;9.55;;;24.60;71.10;;;;;;5036262;28;20417;-52
2023/07/09 05:51:13;;;;;;;10.75;9.65;;;24.70;71.20;;;;;;5035681;28;20100;-52
2023/07/09 05:53:59;;;;;;;11.90;9.70;;;24.80;71.10;;;;;;5036702;28;20083;-52
2023/07/09 05:56:45;;;;;;;11.75;10.00;;;24.80;70.90;;;;;;5035458;28;20067;-54
2023/07/09 05:59:31;;;;;;;12.18;9.70;;;24.80;70.90;;;;;;5037197;28;20083;-57
2023/07/09 06:02:19;;;;;;;10.75;9.27;;;24.80;71.10;;;;;;5038783;28;20458;-55
2023/07/09 06:05:09;;;;;;;12.38;9.80;;;24.90;71.20;;;;;;5037252;28;20028;-53
2023/07/09 06:07:55;;;;;;;10.48;9.38;;;24.90;71.10;;;;;;5036334;28;20099;-53
2023/07/09 06:10:51;;;;;;;10.32;9.30;;;24.90;71.10;;;;;;5040660;28;20029;-55
2023/07/09 06:13:37;;;;;;;10.52;9.20;;;25.10;71.30;;;;;;5040110;28;20021;-56
2023/07/09 06:16:23;;;;;;;10.13;9.13;;;25.00;71.30;;;;;;5039458;28;20391;-54
2023/07/09 06:19:09;;;;;;;11.05;9.90;;;25.00;71.40;;;;;;5036030;28;20371;-53
2023/07/09 06:21:56;;;;;;;10.30;9.30;;;25.10;71.30;;;;;;5036115;28;20029;-56
2023/07/09 06:24:42;;;;;;;11.00;8.82;;;25.20;71.10;;;;;;5036070;28;20017;-56
2023/07/09 06:27:27;;;;;;;11.80;9.98;;;25.40;70.90;;;;;;5034315;28;20058;-53
2023/07/09 06:30:14;;;;;;;10.13;9.15;;;25.40;70.90;;;;;;5035733;28;20464;-53
2023/07/09 06:33:00;;;;;;;10.40;9.07;;;25.50;70.80;;;;;;5036174;28;20025;-55
2023/07/09 06:35:50;;;;;;;9.88;8.88;;;25.60;71.40;;;;;;5035976;28;20037;-53
2023/07/09 06:38:36;;;;;;;11.25;9.45;;;25.60;70.70;;;;;;5035688;28;20025;-50
2023/07/09 06:41:23;;;;;;;10.15;9.15;;;25.70;70.80;;;;;;5035088;28;20512;-53
2023/07/09 06:44:09;;;;;;;10.18;9.15;;;25.80;70.80;;;;;;5036988;28;20026;-54
2023/07/09 06:46:55;;;;;;;9.55;8.38;;;25.80;70.70;;;;;;5040326;28;20181;-56
2023/07/09 06:49:41;;;;;;;11.82;9.52;;;25.80;70.70;;;;;;5038681;28;20030;-52
2023/07/09 06:52:27;;;;;;;10.80;9.57;;;25.90;70.70;;;;;;5038178;28;20076;-55
2023/07/09 06:55:13;;;;;;;11.48;10.02;;;25.90;70.50;;;;;;5036099;28;20528;-56
2023/07/09 06:57:59;;;;;;;10.13;8.98;;;26.00;70.30;;;;;;5035417;28;20033;-56
2023/07/09 07:00:48;;;;;;;11.57;9.82;;;26.00;70.20;;;;;;5035899;28;20486;-55
2023/07/09 07:03:34;;;;;;;10.65;9.57;;;26.10;70.10;;;;;;5035598;28;20097;-55
2023/07/09 07:06:20;;;;;;;9.38;8.48;;;26.10;70.40;;;;;;5034839;28;20091;-54
2023/07/09 07:09:06;;;;;;;10.30;9.20;;;26.10;70.20;;;;;;5035464;28;20030;-53
2023/07/09 07:11:52;;;;;;;9.90;8.90;;;26.20;69.90;;;;;;5035430;28;20099;-52
2023/07/09 07:14:38;;;;;;;10.38;9.25;;;26.20;69.70;;;;;;5035578;28;20065;-54
2023/07/09 07:17:24;;;;;;;10.52;9.52;;;26.20;69.90;;;;;;5033792;28;20112;-54
2023/07/09 07:20:12;;;;;;;11.13;9.38;;;26.20;70.30;;;;;;5034995;28;20045;-56
2023/07/09 07:22:58;;;;;;;14.38;10.40;;;26.30;70.50;;;;;;5034783;28;20060;-55
2023/07/09 07:25:47;;;;;;;9.90;8.90;;;26.40;70.70;;;;;;5034340;28;20017;-54
2023/07/09 07:28:35;;;;;;;10.85;9.75;;;26.50;70.50;;;;;;5034185;28;20022;-55
2023/07/09 07:31:21;;;;;;;10.95;9.85;;;26.60;69.90;;;;;;5034618;28;20029;-56
2023/07/09 07:34:07;;;;;;;11.00;8.95;;;26.70;69.70;;;;;;5034607;28;20034;-55
2023/07/09 07:36:53;;;;;;;10.32;9.27;;;26.80;69.70;;;;;;5034525;28;20057;-54
2023/07/09 07:39:39;;;;;;;10.65;9.10;;;26.90;69.40;;;;;;5033707;28;20399;-57
2023/07/09 07:42:25;;;;;;;10.43;9.43;;;26.90;69.10;;;;;;5033027;28;20021;-56
2023/07/09 07:45:11;;;;;;;10.00;9.02;;;27.10;69.00;;;;;;5033948;28;20534;-56
2023/07/09 07:47:57;;;;;;;10.98;9.98;;;27.20;69.10;;;;;;5033824;28;20029;-57
2023/07/09 07:50:45;;;;;;;10.45;9.45;;;27.30;68.80;;;;;;5033947;28;20072;-57
2023/07/09 07:53:31;;;;;;;11.65;8.98;;;27.40;68.70;;;;;;5033631;28;20037;-57
2023/07/09 07:56:17;;;;;;;10.02;9.02;;;27.50;68.70;;;;;;5032990;28;20116;-54
2023/07/09 07:59:03;;;;;;;10.57;9.50;;;27.60;68.30;;;;;;5033799;28;20501;-53
2023/07/09 08:01:49;;;;;;;10.00;8.82;;;27.60;68.00;;;;;;5033350;28;20087;-53
2023/07/09 08:04:35;;;;;;;9.70;8.75;;;27.60;68.20;;;;;;5033421;28;20037;-53
2023/07/09 08:07:21;;;;;;;10.35;9.32;;;27.80;67.80;;;;;;5033381;28;20044;-52
2023/07/09 08:10:08;;;;;;;9.77;8.57;;;27.90;67.20;;;;;;5033662;28;20486;-53
2023/07/09 08:12:56;;;;;;;10.55;9.45;;;28.10;66.90;;;;;;5035067;28;20569;-53
2023/07/09 08:15:42;;;;;;;9.65;8.65;;;28.20;66.70;;;;;;5034381;28;20067;-53
2023/07/09 08:18:28;;;;;;;10.55;9.45;;;28.30;66.70;;;;;;5036602;28;20060;-54
2023/07/09 08:21:14;;;;;;;10.10;9.10;;;28.30;66.50;;;;;;5041901;28;20026;-54
2023/07/09 08:24:00;;;;;;;10.25;8.82;;;28.40;66.40;;;;;;5043075;28;20018;-53
2023/07/09 08:26:46;;;;;;;9.50;8.55;;;28.60;66.10;;;;;;5038974;28;20029;-55
2023/07/09 08:29:32;;;;;;;9.50;8.70;;;28.70;65.60;;;;;;5034474;28;20034;-51
2023/07/09 08:32:18;;;;;;;9.68;8.80;;;28.80;65.30;;;;;;5032974;28;20029;-57
2023/07/09 08:35:04;;;;;;;9.60;8.32;;;28.90;64.60;;;;;;5033709;28;20117;-56
2023/07/09 08:37:50;;;;;;;9.85;8.80;;;29.00;63.90;;;;;;5032700;28;20184;-57
2023/07/09 08:40:41;;;;;;;9.07;8.15;;;29.00;64.10;;;;;;5033313;28;20026;-56
2023/07/09 08:43:42;;;;;;;9.50;8.63;;;29.00;63.20;;;;;;5033764;28;20465;-57
2023/07/09 08:46:51;;;;;;;9.82;8.43;;;29.20;63.30;;;;;;5031818;28;20077;-55
2023/07/09 08:49:45;;;;;;;11.18;9.20;;;29.20;62.80;;;;;;5032559;28;20029;-54
2023/07/09 08:52:38;;;;;;;11.55;8.93;;;29.40;61.90;;;;;;5031654;28;20401;-57
2023/07/09 08:55:28;;;;;;;10.05;9.07;;;29.40;62.00;;;;;;5032288;28;20038;-54
2023/07/09 08:58:21;;;;;;;9.15;8.35;;;29.50;62.60;;;;;;5032475;28;20494;-55
2023/07/09 09:01:17;;;;;;;12.38;9.23;;;29.70;62.90;;;;;;5033574;28;20078;-53
2023/07/09 09:04:26;;;;;;;9.43;8.52;;;29.80;62.20;;;;;;5043386;28;20029;-55
2023/07/09 09:07:46;;;;;;;10.18;8.23;;;29.80;62.50;;;;;;5033964;28;20103;-55
2023/07/09 09:10:53;;;;;;;10.30;8.68;;;30.10;61.70;;;;;;5031644;28;20029;-53
2023/07/09 09:13:40;;;;;;;11.32;8.38;;;30.10;60.90;;;;;;5032915;28;20025;-53
2023/07/09 09:16:39;;;;;;;9.90;9.00;;;30.30;61.20;;;;;;5033781;28;20506;-56
2023/07/09 09:19:39;;;;;;;12.00;10.90;;;30.60;61.40;;;;;;5036326;28;20033;-57
2023/07/09 09:22:32;;;;;;;9.75;8.73;;;30.60;60.70;;;;;;5035602;28;20037;-57
2023/07/09 09:25:30;;;;;;;9.32;8.40;;;30.60;61.20;;;;;;5034883;28;20498;-52
2023/07/09 09:28:16;;;;;;;9.45;8.55;;;30.80;60.70;;;;;;5034508;28;20041;-55
2023/07/09 09:31:02;;;;;;;8.95;8.05;;;30.90;60.00;;;;;;5037056;28;20029;-50
2023/07/09 09:33:49;;;;;;;9.43;7.55;;;31.00;59.70;;;;;;5035317;28;20040;-55
2023/07/09 09:36:37;;;;;;;11.20;8.20;;;30.90;59.40;;;;;;5032765;28;20029;-56
2023/07/09 09:39:26;;;;;;;7.85;7.15;;;31.00;58.40;;;;;;5032103;28;20026;-56
2023/07/09 09:42:12;;;;;;;8.48;7.72;;;31.00;58.20;;;;;;5032653;28;20029;-55
2023/07/09 09:44:58;;;;;;;9.70;8.00;;;31.20;58.40;;;;;;5031496;28;20026;-51
2023/07/09 09:47:45;;;;;;;8.75;7.95;;;31.40;57.80;;;;;;5032405;28;20073;-51
2023/07/09 09:50:32;;;;;;;8.90;8.00;;;31.30;56.70;;;;;;5032330;28;20026;-55
2023/07/09 09:53:23;;;;;;;8.32;7.38;;;31.20;56.60;;;;;;5032027;28;20049;-55
2023/07/09 09:56:39;;;;;;;7.53;6.68;;;31.20;57.30;;;;;;5032664;28;20252;-57
2023/07/09 09:59:31;;;;;;;7.75;6.93;;;31.50;57.50;;;;;;5032146;28;20589;-55
2023/07/09 10:02:23;;;;;;;10.85;7.38;;;31.70;56.80;;;;;;5032262;28;20026;-54
2023/07/09 10:05:20;;;;;;;9.15;7.57;;;31.90;56.00;;;;;;5034829;28;20111;-55
2023/07/09 10:08:13;;;;;;;12.50;7.43;;;31.90;55.90;;;;;;5034692;28;20018;-54
2023/07/09 10:11:22;;;;;;;8.68;7.78;;;32.10;54.80;;;;;;5036452;28;20549;-55
2023/07/09 10:14:25;;;;;;;8.20;7.40;;;32.10;54.30;;;;;;5038421;28;20029;-57
2023/07/09 10:17:17;;;;;;;7.85;7.05;;;32.10;54.70;;;;;;5036368;28;20474;-57
2023/07/09 10:20:28;;;;;;;7.90;7.10;;;32.30;54.40;;;;;;5035492;28;20029;-55
2023/07/09 10:23:28;;;;;;;8.10;7.07;;;32.30;54.10;;;;;;5034659;28;20112;-54
2023/07/09 10:26:20;;;;;;;8.10;7.30;;;32.40;52.80;;;;;;5035643;28;20109;-56
2023/07/09 10:29:25;;;;;;;9.23;7.50;;;32.40;52.50;;;;;;5034166;28;20044;-57
2023/07/09 10:32:34;;;;;;;8.75;7.35;;;32.60;51.90;;;;;;5033610;28;20021;-56
2023/07/09 10:36:00;;;;;;;9.73;7.38;;;32.60;51.30;;;;;;5035273;28;20068;-54
2023/07/09 10:39:05;;;;;;;7.75;7.05;;;32.70;51.70;;;;;;5033802;28;20036;-54
2023/07/09 10:41:54;;;;;;;8.55;7.75;;;32.80;51.70;;;;;;5036794;28;20030;-55
2023/07/09 10:44:46;;;;;;;9.35;7.30;;;32.80;52.30;;;;;;5037725;28;20033;-53
2023/07/09 10:47:37;;;;;;;9.10;7.00;;;32.80;51.40;;;;;;5037659;28;20030;-51
2023/07/09 10:50:41;;;;;;;7.85;6.80;;;32.70;50.80;;;;;;5036861;28;20038;-56
2023/07/09 10:53:33;;;;;;;6.65;6.05;;;32.70;51.00;;;;;;5033995;28;20064;-53
2023/07/09 10:56:35;;;;;;;8.70;7.13;;;32.80;51.20;;;;;;5033983;28;20086;-54
2023/07/09 10:59:29;;;;;;;10.40;7.30;;;32.90;51.30;;;;;;5034282;28;20023;-56
2023/07/09 11:02:25;;;;;;;;;;;33.00;50.40;;;;;;5034604;28;20456;-55
2023/07/09 11:05:11;;;;;;;8.30;7.45;;;32.90;50.20;;;;;;5036151;28;19909;-55
2023/07/09 11:08:11;;;;;;;8.85;7.35;;;32.70;50.70;;;;;;5034784;28;20441;-56
2023/07/09 11:11:02;;;;;;;7.85;7.05;;;32.80;50.80;;;;;;5033632;28;20025;-56
2023/07/09 11:13:54;;;;;;;8.93;7.55;;;32.70;51.30;;;;;;5033023;28;20037;-55
2023/07/09 11:16:42;;;;;;;8.23;7.07;;;32.80;51.60;;;;;;5034327;28;20021;-53
2023/07/09 11:19:29;;;;;;;8.07;7.28;;;32.80;52.20;;;;;;5038829;28;20064;-58
2023/07/09 11:22:22;;;;;;;8.63;7.80;;;32.90;52.20;;;;;;5038885;28;20033;-56
2023/07/09 11:25:13;;;;;;;7.97;7.28;;;33.00;52.10;;;;;;5037132;28;20018;-56
2023/07/09 11:28:05;;;;;;;9.45;7.50;;;33.20;51.70;;;;;;5034631;28;20041;-53
2023/07/09 11:30:54;;;;;;;8.35;7.55;;;33.20;51.80;;;;;;5035044;28;20053;-55
2023/07/09 11:33:48;;;;;;;8.65;7.55;;;33.20;52.00;;;;;;5034304;28;20033;-57
2023/07/09 11:36:46;;;;;;;8.32;7.53;;;33.40;51.70;;;;;;5032365;28;20041;-55
2023/07/09 11:39:52;;;;;;;8.27;7.47;;;33.30;51.50;;;;;;5033959;28;20442;-57
2023/07/09 11:42:53;;;;;;;9.82;7.75;;;33.30;51.80;;;;;;5033503;28;20025;-56
2023/07/09 11:45:42;;;;;;;7.40;6.70;;;33.40;51.60;;;;;;5034099;28;20496;-55
2023/07/09 11:48:31;;;;;;;8.25;7.45;;;33.40;51.40;;;;;;5032626;28;20072;-55
2023/07/09 11:51:21;;;;;;;8.40;7.60;;;33.30;51.90;;;;;;5032577;28;20544;-55
2023/07/09 11:54:12;;;;;;;8.05;7.35;;;33.50;51.90;;;;;;5032711;28;20053;-54
2023/07/09 11:57:01;;;;;;;7.50;6.80;;;33.50;51.40;;;;;;5033799;28;20108;-55
2023/07/09 11:59:47;;;;;;;7.97;7.28;;;33.60;51.40;;;;;;5032623;28;20040;-56
2023/07/09 12:02:34;;;;;;;8.30;7.50;;;33.70;50.10;;;;;;5032776;28;20212;-57
2023/07/09 12:05:28;;;;;;;9.30;7.80;;;33.70;50.50;;;;;;5031641;28;20037;-58
2023/07/09 12:08:15;;;;;;;;;;;33.60;51.10;;;;;;5033288;28;20026;-57
2023/07/09 12:11:01;;;;;;;7.75;7.00;;;33.30;50.70;;;;;;5035382;28;19956;-54
2023/07/09 12:13:47;;;;;;;8.45;7.65;;;33.50;51.40;;;;;;5035203;28;20056;-53
2023/07/09 12:16:39;;;;;;;7.68;6.88;;;33.70;50.60;;;;;;5034089;28;20030;-57
2023/07/09 12:19:29;;;;;;;10.35;7.32;;;33.70;49.90;;;;;;5034774;28;20486;-57
2023/07/09 12:22:20;;;;;;;8.95;7.63;;;33.80;50.10;;;;;;5034187;28;20029;-57
2023/07/09 12:25:19;;;;;;;8.10;7.30;;;33.90;50.30;;;;;;5033283;28;20025;-55
2023/07/09 12:28:13;;;;;;;12.65;11.43;;;33.70;49.70;;;;;;5032614;28;20443;-57
2023/07/09 12:30:59;;;;;;;10.20;8.70;;;33.70;50.20;;;;;;5033221;28;20045;-58
2023/07/09 12:33:49;;;;;;;8.63;7.72;;;33.80;50.00;;;;;;5032236;28;20078;-56
2023/07/09 12:36:36;;;;;;;8.90;7.63;;;33.90;49.60;;;;;;5033123;28;20048;-56
2023/07/09 12:39:28;;;;;;;8.40;7.60;;;34.00;50.00;;;;;;5032063;28;20518;-57
2023/07/09 12:42:17;;;;;;;12.02;7.75;;;34.30;50.10;;;;;;5033424;28;20069;-56
2023/07/09 12:45:05;;;;;;;8.95;8.00;;;34.50;49.30;;;;;;5033607;28;20021;-54
2023/07/09 12:47:51;;;;;;;10.70;7.85;;;34.50;49.60;;;;;;5032096;28;20026;-54
2023/07/09 12:50:37;;;;;;;8.73;7.82;;;34.40;49.70;;;;;;5032634;28;20505;-58
2023/07/09 12:53:26;;;;;;;9.32;8.00;;;34.40;49.60;;;;;;5032009;28;20025;-57
2023/07/09 12:56:15;;;;;;;9.02;7.20;;;34.50;49.70;;;;;;5041049;28;20033;-57
2023/07/09 12:59:06;;;;;;;8.73;7.97;;;34.70;50.10;;;;;;5040461;28;20021;-57
2023/07/09 13:01:59;;;;;;;9.20;8.25;;;34.90;49.50;;;;;;5031544;28;20026;-57
2023/07/09 13:04:46;;;;;;;9.25;7.82;;;35.00;49.50;;;;;;5033306;28;20033;-53
2023/07/09 13:07:38;;;;;;;8.68;7.78;;;35.30;49.80;;;;;;5032273;28;20025;-56
2023/07/09 13:10:27;;;;;;;8.48;7.63;;;35.40;48.70;;;;;;5033154;28;20026;-54
2023/07/09 13:13:14;;;;;;;8.98;7.78;;;35.30;49.10;;;;;;5033413;28;20036;-54
2023/07/09 13:16:01;;;;;;;9.25;7.78;;;35.30;49.00;;;;;;5032950;28;20395;-55
2023/07/09 13:18:48;;;;;;;8.85;7.78;;;35.50;48.80;;;;;;5033382;28;20083;-55
2023/07/09 13:21:38;;;;;;;9.65;7.68;;;35.50;49.00;;;;;;5034588;28;20044;-57
2023/07/09 13:24:27;;;;;;;9.30;8.15;;;35.40;48.30;;;;;;5032967;28;20129;-56
2023/07/09 13:27:15;;;;;;;9.13;7.63;;;35.40;48.90;;;;;;5033743;28;20089;-58
2023/07/09 13:30:01;;;;;;;8.60;7.80;;;35.20;48.40;;;;;;5035799;28;20022;-57
2023/07/09 13:32:48;;;;;;;10.25;7.90;;;35.30;48.10;;;;;;5037104;28;20440;-57
2023/07/09 13:35:34;;;;;;;9.30;7.80;;;35.50;48.40;;;;;;5041462;28;20447;-58
2023/07/09 13:38:22;;;;;;;9.57;7.50;;;35.60;48.40;;;;;;5041034;28;20030;-56
2023/07/09 13:41:14;;;;;;;8.75;7.85;;;36.00;48.40;;;;;;5035714;28;20577;-53
2023/07/09 13:44:00;;;;;;;8.73;7.88;;;36.40;48.20;;;;;;5037627;28;20029;-57
2023/07/09 13:46:46;;;;;;;8.35;7.40;;;36.60;47.60;;;;;;5036307;28;20029;-57
2023/07/09 13:49:33;;;;;;;8.82;7.90;;;36.70;47.60;;;;;;5036818;28;20108;-56
2023/07/09 13:52:23;;;;;;;9.40;7.35;;;36.90;47.30;;;;;;5035958;28;20033;-58
2023/07/09 13:55:17;;;;;;;8.27;7.47;;;36.60;48.20;;;;;;5036551;28;20457;-54
2023/07/09 13:58:03;;;;;;;;;;;36.70;47.40;;;;;;5037003;28;20034;-57
2023/07/09 14:00:54;;;;;;;8.30;7.22;;;36.80;48.00;;;;;;5037872;28;19913;-55
2023/07/09 14:03:40;;;;;;;8.68;7.93;;;36.90;47.10;;;;;;5035168;28;20556;-55
2023/07/09 14:06:26;;;;;;;7.93;7.13;;;37.10;47.30;;;;;;5034990;28;20021;-57
2023/07/09 14:09:13;;;;;;;10.60;7.18;;;37.20;47.20;;;;;;5034975;28;20033;-58
2023/07/09 14:11:59;;;;;;;9.23;7.30;;;37.30;47.20;;;;;;5036168;28;20037;-57
2023/07/09 14:14:47;;;;;;;9.65;8.38;;;37.30;47.10;;;;;;5036395;28;20120;-54
2023/07/09 14:17:33;;;;;;;9.77;7.43;;;37.20;47.40;;;;;;5036076;28;20084;-55
2023/07/09 14:20:20;;;;;;;8.73;7.63;;;36.90;47.50;;;;;;5035870;28;20022;-57
2023/07/09 14:23:11;;;;;;;9.68;8.68;;;37.10;47.10;;;;;;5036519;28;20033;-52
2023/07/09 14:25:57;;;;;;;8.88;7.93;;;37.10;46.80;;;;;;5035029;28;20018;-56
2023/07/09 14:28:43;;;;;;;9.43;7.50;;;37.60;47.20;;;;;;5034854;28;20045;-53
2023/07/09 14:31:31;;;;;;;11.90;8.45;;;37.70;46.70;;;;;;5035820;28;20033;-55
2023/07/09 14:34:25;;;;;;;10.02;7.40;;;37.60;46.50;;;;;;5034712;28;20045;-56